Ana Sayfa
METAR-TAF:

METAR-TAF

Havaalanları :

Lexington, Kuzey Carolina, Amerika Birleşik Devletleri

Enlem: 35-46-52N, Boylam: 080-18-14W, yükseklik: 223 m

Güncel hava durumu gözlemi

Rapor saat 23:15 UTC de 1 saat ve 8 dakika önce yapıldı.
Rüzgar güneybatıdan 6 kt
Sıcaklık 27°C
Nem 70%
Basınç 1016 hPa
Görüş mesafesi: 16.1 km
Açık gökyüzü

METAR: KEXX 112315Z AUTO 23006KT 10SM CLR 27/21 A2999 RMK AO2 T02660208

Saat: 20:23 (00:23 UTC)


TAF: eksik

4.000'den fazla havaalanı için hava durumu gözlemleri ve tahminleri (METAR ve TAF raporları).

Kullanılabilir istasyonlar harita üzerinde sarı ve kırmızı noktalarla gösterilir.

İstasyonun adını görmek için fareyi noktanın üzerinde gezdirin.

Sonrasında hava gözlem ve tahminlerini görmek için tıklayın.

Haritayı değiştirmek için: yaklaştırmak için siyah artı işaretli yeşil düğmeye ve uzaklaştırmak için de eksi işaretli düğmeye hızla tıklayın; bitişik haritalar için yeşil okları kullanın.


METAR-TAF: